DW8855 Weather Reports


Display with metric or nautical units.
time (UTC)temp
F
wind
direction
speed
MPH
gust
MPH
rain 1hr
in
rain 24hr
in
rain mn
in
humidity
%
barometer
mb
20210613100113 59 181 5.0 0.0 0.00 0.00 0.00 67 1004.1
20210613094736 59 173 5.0 0.0 0.00 0.00 0.00 66 1004.2
20210613093105 59 175 2.0 0.0 0.00 0.00 0.00 67 1004.3
20210613091615 58 180 0.0 0.0 0.00 0.00 0.00 69 1004.4
20210613090124 56 246 1.0 0.0 0.00 0.00 0.00 72 1004.6
20210613084649 58 333 0.0 0.0 0.00 0.00 0.00 69 1004.3
20210613083128 60 190 1.0 0.0 0.00 0.00 0.00 65 1004.4
20210613081554 61 197 1.0 0.0 0.00 0.00 0.00 63 1004.3
20210613080122 61 214 3.0 0.0 0.00 0.00 0.00 63 1004.2
20210613074549 61 229 1.0 0.0 0.00 0.00 0.00 62 1004.2
20210613073031 62 182 0.0 0.0 0.00 0.00 0.00 61 1004.2
20210613071537 62 173 0.0 0.0 0.00 0.00 0.00 60 1004.2
20210613070037 62 165 0.0 0.0 0.00 0.00 0.00 59 1004.4
20210613064535 63 130 0.0 0.0 0.00 0.00 0.00 58 1004.5
20210613063026 63 123 0.0 0.0 0.00 0.00 0.00 58 1004.5
20210613061530 63 103 0.0 0.0 0.00 0.00 0.00 57 1004.6
20210613060015 64 109 0.0 0.0 0.00 0.00 0.00 56 1004.7
20210613054604 64 113 0.0 0.0 0.00 0.00 0.00 55 1004.6
20210613053011 64 107 0.0 0.0 0.00 0.00 0.00 54 1004.8
20210613051514 65 107 0.0 0.0 0.00 0.00 0.00 54 1004.8
20210613050004 65 138 0.0 0.0 0.00 0.00 0.00 53 1005.0
20210613044509 65 123 0.0 0.0 0.00 0.00 0.00 52 1005.0
20210613043141 66 121 0.0 0.0 0.00 0.00 0.00 52 1004.9
20210613041720 66 155 0.0 0.0 0.00 0.00 0.00 50 1004.7
20210613040124 67 243 0.0 0.0 0.00 0.00 0.00 49 1004.5
20210613034803 68 243 1.0 0.0 0.00 0.00 0.00 48 1004.7
20210613033154 68 261 1.0 0.0 0.00 0.00 0.00 47 1004.7
20210613031632 68 231 0.0 0.0 0.00 0.00 0.00 47 1004.8
20210613030025 69 267 0.0 0.0 0.00 0.00 0.00 46 1004.6
20210613024521 70 265 0.0 0.0 0.00 0.00 0.00 45 1004.6
20210613023026 70 203 1.0 0.0 0.00 0.00 0.00 44 1004.7
20210613021542 70 219 4.0 0.0 0.00 0.00 0.00 43 1004.8
20210613021525 70 222 4.0 0.0 0.00 0.00 0.00 43 1004.8
20210613020018 71 198 1.0 0.0 0.00 0.00 0.00 42 1004.8
20210613014518 71 240 2.0 0.0 0.00 0.00 0.00 41 1005.0
20210613013021 70 154 1.0 0.0 0.00 0.00 0.00 44 1004.9
20210613011506 69 203 3.0 0.0 0.00 0.00 0.00 44 1005.1
20210613010021 69 198 6.0 0.0 0.00 0.00 0.00 45 1005.5
20210613004518 69 180 11.0 0.0 0.00 0.00 0.00 45 1005.7
20210613003057 72 217 6.0 0.0 0.00 0.00 0.00 36 1005.5
20210613001620 73 126 7.0 0.0 0.00 0.00 0.00 36 1005.5
20210613000048 73 171 5.0 0.0 0.00 0.00 0.00 35 1005.6
20210612234520 73 213 2.0 0.0 0.00 0.00 0.00 37 1005.8
20210612233054 73 186 3.0 0.0 0.00 0.00 0.00 35 1006.0
20210612231518 73 256 6.0 0.0 0.00 0.00 0.00 34 1006.4
20210612230040 73 192 7.0 0.0 0.00 0.00 0.00 34 1006.4
20210612224513 73 187 7.0 0.0 0.00 0.00 0.00 34 1006.5
20210612223020 73 178 7.0 0.0 0.00 0.00 0.00 31 1006.6
20210612221552 73 126 3.0 0.0 0.00 0.00 0.00 34 1006.8
20210612220052 73 151 6.0 0.0 0.00 0.00 0.00 34 1007.0
20210612214652 73 130 7.0 0.0 0.00 0.00 0.00 33 1007.5
20210612213044 71 117 5.0 0.0 0.00 0.00 0.00 37 1007.5
20210612211523 70 226 3.0 0.0 0.00 0.00 0.00 36 1007.7
20210612210023 69 355 0.0 0.0 0.00 0.00 0.00 42 1008.0
20210612204536 69 69 3.0 0.0 0.00 0.00 0.00 44 1008.4
20210612203023 69 49 1.0 0.0 0.00 0.00 0.00 43 1008.4
20210612201513 69 59 2.0 0.0 0.00 0.00 0.00 40 1008.8
20210612200012 68 113 4.0 0.0 0.00 0.00 0.00 43 1008.9
20210612194516 68 200 3.0 0.0 0.00 0.00 0.00 44 1008.9
20210612193009 67 109 7.0 0.0 0.00 0.00 0.00 46 1009.4
20210612191507 66 139 5.0 0.0 0.00 0.00 0.00 46 1009.7
20210612190218 65 154 6.0 0.0 0.00 0.00 0.00 51 1009.6
20210612184717 65 128 6.0 0.0 0.00 0.00 0.00 49 1009.9
20210612183057 64 221 8.0 0.0 0.00 0.00 0.00 50 1010.5
20210612181615 64 168 6.0 0.0 0.00 0.00 0.00 54 1010.5
20210612180055 63 127 5.0 0.0 0.00 0.00 0.00 56 1010.5
20210612174526 62 225 3.0 0.0 0.00 0.00 0.00 60 1010.6
20210612173034 61 96 4.0 0.0 0.00 0.00 0.00 61 1010.8
20210612171515 61 145 6.0 0.0 0.00 0.00 0.00 61 1011.0
20210612170028 60 117 8.0 0.0 0.00 0.00 0.00 63 1011.0
20210612164528 59 152 8.0 0.0 0.00 0.00 0.00 62 1011.1
20210612163003 58 131 8.0 0.0 0.00 0.00 0.00 66 1011.3
20210612161807 57 159 7.0 0.0 0.00 0.00 0.00 71 1011.2
20210612160210 57 194 6.0 0.0 0.00 0.00 0.00 73 1011.2
20210612154625 56 175 5.0 0.0 0.00 0.00 0.00 72 1011.4
20210612153150 54 117 7.0 0.0 0.00 0.00 0.00 77 1011.3
20210612151640 53 169 4.0 0.0 0.00 0.00 0.00 82 1011.3
20210612150113 54 154 5.0 0.0 0.00 0.00 0.00 82 1011.2
20210612144632 53 178 4.0 0.0 0.00 0.00 0.00 86 1011.2
20210612143126 51 138 1.0 0.0 0.00 0.00 0.00 91 1011.1
20210612141633 48 86 0.0 0.0 0.00 0.00 0.00 95 1011.0
20210612140100 48 340 0.0 0.0 0.00 0.00 0.00 93 1011.0
20210612134605 47 190 0.0 0.0 0.00 0.00 0.00 94 1011.0
20210612133111 47 46 0.0 0.0 0.00 0.00 0.00 90 1011.1
20210612131621 48 247 2.0 0.0 0.00 0.00 0.00 92 1010.8
20210612130046 46 244 2.0 0.0 0.00 0.00 0.00 94 1010.7
20210612124528 45 203 1.0 0.0 0.00 0.00 0.00 95 1010.5
20210612123054 45 221 0.0 0.0 0.00 0.00 0.00 95 1010.4
20210612121554 46 109 0.0 0.0 0.00 0.00 0.00 96 1010.3
20210612120106 46 229 0.0 0.0 0.00 0.00 0.00 97 1010.2
20210612114515 45 13 0.0 0.0 0.00 0.00 0.00 96 1010.3
20210612113021 45 170 1.0 0.0 0.00 0.00 0.00 96 1010.2
20210612111514 45 338 0.0 0.0 0.00 0.00 0.00 95 1010.2
20210612110012 47 69 0.0 0.0 0.00 0.00 0.00 92 1010.3
20210612104626 49 26 0.0 0.0 0.00 0.00 0.00 90 1010.1
20210612103122 48 156 2.0 0.0 0.00 0.00 0.00 91 1010.1
20210612101552 47 222 1.0 0.0 0.00 0.00 0.00 93 1010.1